Terminal Aerodrome Forecast
Issued by NWS Norman, OK

Home | Current Version | Previous Version | Text Only | Print | Product List | Glossary On
Versions: 1 2 3 4 5 6 7 8 9 10 11 12 13 14 15 16 17 18 19 20 21 22 23 24 25
000
FTUS44 KOUN 181120
TAFSPS
TAF
KSPS 181120Z 1812/1912 13009G23KT 1 1/2SM -RA BR OVC003
     FM181700 04005KT 6SM BR OVC004
     FM182200 04005KT 6SM BR OVC007
     FM190200 02005KT 3SM BR OVC003=

USA.gov is the U.S. government's official web portal to all federal, state and local government web resources and services.